sensor_id;sensor_type;location;lat;lon;timestamp;temperature;humidity
17891;DHT22;9071;48.220;14.480;2022-09-01T00:02:15;14.50;99.90
17891;DHT22;9071;48.220;14.480;2022-09-01T00:07:18;14.40;99.90
17891;DHT22;9071;48.220;14.480;2022-09-01T00:12:20;14.40;99.90
17891;DHT22;9071;48.220;14.480;2022-09-01T00:17:26;14.40;99.90
17891;DHT22;9071;48.220;14.480;2022-09-01T00:22:30;14.40;99.90
17891;DHT22;9071;48.220;14.480;2022-09-01T00:27:33;14.40;99.90
17891;DHT22;9071;48.220;14.480;2022-09-01T00:32:37;14.40;99.90
17891;DHT22;9071;48.220;14.480;2022-09-01T00:37:39;14.30;99.90
17891;DHT22;9071;48.220;14.480;2022-09-01T00:42:45;14.20;99.90
17891;DHT22;9071;48.220;14.480;2022-09-01T00:47:49;14.10;99.90
17891;DHT22;9071;48.220;14.480;2022-09-01T00:53:05;14.00;99.90
17891;DHT22;9071;48.220;14.480;2022-09-01T00:58:08;14.00;99.90
17891;DHT22;9071;48.220;14.480;2022-09-01T01:03:13;14.00;99.90
17891;DHT22;9071;48.220;14.480;2022-09-01T01:08:15;13.90;99.90
17891;DHT22;9071;48.220;14.480;2022-09-01T01:13:19;13.90;99.90
17891;DHT22;9071;48.220;14.480;2022-09-01T01:18:27;13.90;99.90
17891;DHT22;9071;48.220;14.480;2022-09-01T01:23:38;14.00;99.90
17891;DHT22;9071;48.220;14.480;2022-09-01T01:28:42;14.00;99.90
17891;DHT22;9071;48.220;14.480;2022-09-01T01:33:47;14.00;99.90
17891;DHT22;9071;48.220;14.480;2022-09-01T01:38:49;14.00;99.90
17891;DHT22;9071;48.220;14.480;2022-09-01T01:43:54;14.00;99.90
17891;DHT22;9071;48.220;14.480;2022-09-01T01:48:56;14.00;99.90
17891;DHT22;9071;48.220;14.480;2022-09-01T01:53:59;14.00;99.90
17891;DHT22;9071;48.220;14.480;2022-09-01T01:59:07;13.90;99.90
17891;DHT22;9071;48.220;14.480;2022-09-01T02:04:16;13.70;99.90
17891;DHT22;9071;48.220;14.480;2022-09-01T02:09:19;13.80;99.90
17891;DHT22;9071;48.220;14.480;2022-09-01T02:14:24;13.90;99.90
17891;DHT22;9071;48.220;14.480;2022-09-01T02:19:26;14.00;99.90
17891;DHT22;9071;48.220;14.480;2022-09-01T02:24:28;14.00;99.90
17891;DHT22;9071;48.220;14.480;2022-09-01T02:29:32;14.00;99.90
17891;DHT22;9071;48.220;14.480;2022-09-01T02:34:35;14.00;99.90
17891;DHT22;9071;48.220;14.480;2022-09-01T02:39:40;13.90;99.90
17891;DHT22;9071;48.220;14.480;2022-09-01T02:44:44;13.80;99.90
17891;DHT22;9071;48.220;14.480;2022-09-01T02:49:46;13.70;99.90
17891;DHT22;9071;48.220;14.480;2022-09-01T02:54:48;13.60;99.90
17891;DHT22;9071;48.220;14.480;2022-09-01T02:59:51;13.50;99.90
17891;DHT22;9071;48.220;14.480;2022-09-01T03:04:58;13.40;99.90
17891;DHT22;9071;48.220;14.480;2022-09-01T03:10:01;13.30;99.90
17891;DHT22;9071;48.220;14.480;2022-09-01T03:15:10;13.20;99.90
17891;DHT22;9071;48.220;14.480;2022-09-01T03:20:13;13.20;99.90
17891;DHT22;9071;48.220;14.480;2022-09-01T03:25:15;13.00;99.90
17891;DHT22;9071;48.220;14.480;2022-09-01T03:30:20;12.90;99.90
17891;DHT22;9071;48.220;14.480;2022-09-01T03:35:22;12.80;99.90
17891;DHT22;9071;48.220;14.480;2022-09-01T03:40:25;12.70;99.90
17891;DHT22;9071;48.220;14.480;2022-09-01T03:45:29;12.70;99.90
17891;DHT22;9071;48.220;14.480;2022-09-01T03:50:36;12.60;99.90
17891;DHT22;9071;48.220;14.480;2022-09-01T03:55:39;12.60;99.90
17891;DHT22;9071;48.220;14.480;2022-09-01T04:00:45;12.60;99.90
17891;DHT22;9071;48.220;14.480;2022-09-01T04:05:49;12.70;99.90
17891;DHT22;9071;48.220;14.480;2022-09-01T04:10:53;12.60;99.90
17891;DHT22;9071;48.220;14.480;2022-09-01T04:15:57;12.40;99.90
17891;DHT22;9071;48.220;14.480;2022-09-01T04:20:59;12.30;99.90
17891;DHT22;9071;48.220;14.480;2022-09-01T04:26:06;12.20;99.90
17891;DHT22;9071;48.220;14.480;2022-09-01T04:31:13;12.20;99.90
17891;DHT22;9071;48.220;14.480;2022-09-01T04:36:21;12.10;99.90
17891;DHT22;9071;48.220;14.480;2022-09-01T04:41:26;12.20;99.90
17891;DHT22;9071;48.220;14.480;2022-09-01T04:46:35;12.40;99.90
17891;DHT22;9071;48.220;14.480;2022-09-01T04:51:38;12.60;99.90
17891;DHT22;9071;48.220;14.480;2022-09-01T04:56:41;12.90;99.90
17891;DHT22;9071;48.220;14.480;2022-09-01T05:01:50;13.10;99.90
17891;DHT22;9071;48.220;14.480;2022-09-01T05:06:56;13.20;99.90
17891;DHT22;9071;48.220;14.480;2022-09-01T05:12:01;13.20;99.90
17891;DHT22;9071;48.220;14.480;2022-09-01T05:17:25;13.20;99.90
17891;DHT22;9071;48.220;14.480;2022-09-01T05:22:28;13.30;99.90
17891;DHT22;9071;48.220;14.480;2022-09-01T05:27:31;13.40;99.90
17891;DHT22;9071;48.220;14.480;2022-09-01T05:32:35;13.50;99.90
17891;DHT22;9071;48.220;14.480;2022-09-01T05:37:39;13.60;99.90
17891;DHT22;9071;48.220;14.480;2022-09-01T05:42:42;13.70;99.90
17891;DHT22;9071;48.220;14.480;2022-09-01T05:47:46;13.90;99.90
17891;DHT22;9071;48.220;14.480;2022-09-01T05:52:48;14.10;99.90
17891;DHT22;9071;48.220;14.480;2022-09-01T05:57:50;14.20;99.90
17891;DHT22;9071;48.220;14.480;2022-09-01T06:02:54;14.40;99.90
17891;DHT22;9071;48.220;14.480;2022-09-01T06:07:58;14.70;99.90
17891;DHT22;9071;48.220;14.480;2022-09-01T06:13:00;14.80;99.90
17891;DHT22;9071;48.220;14.480;2022-09-01T06:18:04;15.10;99.90
17891;DHT22;9071;48.220;14.480;2022-09-01T06:23:06;15.90;99.90
17891;DHT22;9071;48.220;14.480;2022-09-01T06:28:08;17.80;99.90
17891;DHT22;9071;48.220;14.480;2022-09-01T06:33:14;20.90;99.90
17891;DHT22;9071;48.220;14.480;2022-09-01T06:38:22;23.00;99.90
17891;DHT22;9071;48.220;14.480;2022-09-01T06:43:26;23.70;99.90
17891;DHT22;9071;48.220;14.480;2022-09-01T06:48:31;24.90;99.90
17891;DHT22;9071;48.220;14.480;2022-09-01T06:53:33;25.10;99.90
17891;DHT22;9071;48.220;14.480;2022-09-01T06:58:35;25.30;99.90
17891;DHT22;9071;48.220;14.480;2022-09-01T07:03:41;23.40;99.90
17891;DHT22;9071;48.220;14.480;2022-09-01T07:08:44;24.60;99.90
17891;DHT22;9071;48.220;14.480;2022-09-01T07:13:49;25.80;99.90
17891;DHT22;9071;48.220;14.480;2022-09-01T07:18:56;26.50;99.90
17891;DHT22;9071;48.220;14.480;2022-09-01T07:24:00;27.00;99.90
17891;DHT22;9071;48.220;14.480;2022-09-01T07:29:05;26.60;99.90
17891;DHT22;9071;48.220;14.480;2022-09-01T07:34:12;25.40;99.90
17891;DHT22;9071;48.220;14.480;2022-09-01T07:39:16;23.50;99.90
17891;DHT22;9071;48.220;14.480;2022-09-01T07:44:18;22.20;99.90
17891;DHT22;9071;48.220;14.480;2022-09-01T07:49:22;21.70;99.90
17891;DHT22;9071;48.220;14.480;2022-09-01T07:54:24;21.90;99.90
17891;DHT22;9071;48.220;14.480;2022-09-01T07:59:27;22.10;99.90
17891;DHT22;9071;48.220;14.480;2022-09-01T08:04:31;22.80;99.90
17891;DHT22;9071;48.220;14.480;2022-09-01T08:09:35;23.10;99.90
17891;DHT22;9071;48.220;14.480;2022-09-01T08:14:38;23.80;99.90
17891;DHT22;9071;48.220;14.480;2022-09-01T08:19:42;23.70;99.90
17891;DHT22;9071;48.220;14.480;2022-09-01T08:24:44;23.20;99.90
17891;DHT22;9071;48.220;14.480;2022-09-01T08:29:46;22.90;99.90
17891;DHT22;9071;48.220;14.480;2022-09-01T08:34:49;22.80;99.90
17891;DHT22;9071;48.220;14.480;2022-09-01T08:39:52;22.20;99.90
17891;DHT22;9071;48.220;14.480;2022-09-01T08:44:58;22.00;99.90
17891;DHT22;9071;48.220;14.480;2022-09-01T08:50:06;21.40;99.90
17891;DHT22;9071;48.220;14.480;2022-09-01T08:55:13;21.10;99.90
17891;DHT22;9071;48.220;14.480;2022-09-01T09:00:18;21.10;99.90
17891;DHT22;9071;48.220;14.480;2022-09-01T09:05:34;20.10;99.90
17891;DHT22;9071;48.220;14.480;2022-09-01T09:10:46;19.70;99.90
17891;DHT22;9071;48.220;14.480;2022-09-01T09:15:53;19.80;99.90
17891;DHT22;9071;48.220;14.480;2022-09-01T09:21:04;20.20;99.90
17891;DHT22;9071;48.220;14.480;2022-09-01T09:26:07;20.40;99.90
17891;DHT22;9071;48.220;14.480;2022-09-01T09:31:30;20.70;99.90
17891;DHT22;9071;48.220;14.480;2022-09-01T09:36:35;21.00;99.90
17891;DHT22;9071;48.220;14.480;2022-09-01T09:41:39;20.90;99.90
17891;DHT22;9071;48.220;14.480;2022-09-01T09:46:43;20.10;99.90
17891;DHT22;9071;48.220;14.480;2022-09-01T09:51:50;20.50;99.90
17891;DHT22;9071;48.220;14.480;2022-09-01T09:57:07;20.60;99.90
17891;DHT22;9071;48.220;14.480;2022-09-01T10:02:24;20.70;99.90
17891;DHT22;9071;48.220;14.480;2022-09-01T10:07:32;20.60;99.90
17891;DHT22;9071;48.220;14.480;2022-09-01T10:12:34;21.30;99.90
17891;DHT22;9071;48.220;14.480;2022-09-01T10:17:38;21.50;99.90
17891;DHT22;9071;48.220;14.480;2022-09-01T10:22:43;21.30;99.90
17891;DHT22;9071;48.220;14.480;2022-09-01T10:27:47;22.20;99.90
17891;DHT22;9071;48.220;14.480;2022-09-01T10:32:51;22.50;99.90
17891;DHT22;9071;48.220;14.480;2022-09-01T10:37:57;22.30;99.90
17891;DHT22;9071;48.220;14.480;2022-09-01T10:43:28;22.30;99.90
17891;DHT22;9071;48.220;14.480;2022-09-01T10:48:32;22.60;99.90
17891;DHT22;9071;48.220;14.480;2022-09-01T10:53:39;22.90;99.90
17891;DHT22;9071;48.220;14.480;2022-09-01T10:58:48;23.20;99.90
17891;DHT22;9071;48.220;14.480;2022-09-01T11:03:53;22.20;99.90
17891;DHT22;9071;48.220;14.480;2022-09-01T11:08:58;21.50;99.90
17891;DHT22;9071;48.220;14.480;2022-09-01T11:14:03;21.90;99.90
17891;DHT22;9071;48.220;14.480;2022-09-01T11:19:31;21.70;99.90
17891;DHT22;9071;48.220;14.480;2022-09-01T11:25:06;22.00;99.90
17891;DHT22;9071;48.220;14.480;2022-09-01T11:30:16;21.50;99.90
17891;DHT22;9071;48.220;14.480;2022-09-01T11:35:20;21.70;99.90
17891;DHT22;9071;48.220;14.480;2022-09-01T11:40:26;21.70;99.90
17891;DHT22;9071;48.220;14.480;2022-09-01T11:45:31;21.90;99.90
17891;DHT22;9071;48.220;14.480;2022-09-01T11:50:35;22.20;99.90
17891;DHT22;9071;48.220;14.480;2022-09-01T11:55:41;22.70;99.90
17891;DHT22;9071;48.220;14.480;2022-09-01T12:00:44;23.10;99.90
17891;DHT22;9071;48.220;14.480;2022-09-01T12:05:51;22.90;99.90
17891;DHT22;9071;48.220;14.480;2022-09-01T12:11:02;22.30;99.90
17891;DHT22;9071;48.220;14.480;2022-09-01T12:16:09;21.50;99.90
17891;DHT22;9071;48.220;14.480;2022-09-01T12:21:18;20.90;99.90
17891;DHT22;9071;48.220;14.480;2022-09-01T12:26:24;20.40;99.90
17891;DHT22;9071;48.220;14.480;2022-09-01T12:31:28;20.20;99.90
17891;DHT22;9071;48.220;14.480;2022-09-01T12:36:32;20.10;99.90
17891;DHT22;9071;48.220;14.480;2022-09-01T12:41:37;20.00;99.90
17891;DHT22;9071;48.220;14.480;2022-09-01T12:46:42;20.00;99.90
17891;DHT22;9071;48.220;14.480;2022-09-01T12:51:45;20.00;99.90
17891;DHT22;9071;48.220;14.480;2022-09-01T12:56:49;20.00;99.90
17891;DHT22;9071;48.220;14.480;2022-09-01T13:01:53;20.10;99.90
17891;DHT22;9071;48.220;14.480;2022-09-01T13:06:59;20.20;99.90
17891;DHT22;9071;48.220;14.480;2022-09-01T13:12:15;20.40;99.90
17891;DHT22;9071;48.220;14.480;2022-09-01T13:17:19;20.70;99.90
17891;DHT22;9071;48.220;14.480;2022-09-01T13:22:21;20.90;99.90
17891;DHT22;9071;48.220;14.480;2022-09-01T13:27:23;21.20;99.90
17891;DHT22;9071;48.220;14.480;2022-09-01T13:32:26;21.40;99.90
17891;DHT22;9071;48.220;14.480;2022-09-01T13:37:28;21.50;99.90
17891;DHT22;9071;48.220;14.480;2022-09-01T13:42:31;21.50;99.90
17891;DHT22;9071;48.220;14.480;2022-09-01T13:47:35;21.60;99.90
17891;DHT22;9071;48.220;14.480;2022-09-01T13:52:38;21.60;99.90
17891;DHT22;9071;48.220;14.480;2022-09-01T13:57:40;21.80;99.90
17891;DHT22;9071;48.220;14.480;2022-09-01T14:02:45;21.80;99.90
17891;DHT22;9071;48.220;14.480;2022-09-01T14:07:50;21.90;99.90
17891;DHT22;9071;48.220;14.480;2022-09-01T14:12:53;21.70;99.90
17891;DHT22;9071;48.220;14.480;2022-09-01T14:17:56;21.60;99.90
17891;DHT22;9071;48.220;14.480;2022-09-01T14:23:00;21.20;99.90
17891;DHT22;9071;48.220;14.480;2022-09-01T14:28:03;21.00;99.90
17891;DHT22;9071;48.220;14.480;2022-09-01T14:33:07;20.90;99.90
17891;DHT22;9071;48.220;14.480;2022-09-01T14:38:09;20.80;99.90
17891;DHT22;9071;48.220;14.480;2022-09-01T14:43:13;20.60;99.90
17891;DHT22;9071;48.220;14.480;2022-09-01T14:48:17;20.50;99.90
17891;DHT22;9071;48.220;14.480;2022-09-01T14:53:20;20.10;99.90
17891;DHT22;9071;48.220;14.480;2022-09-01T14:58:23;20.00;99.90
17891;DHT22;9071;48.220;14.480;2022-09-01T15:03:27;19.90;99.90
17891;DHT22;9071;48.220;14.480;2022-09-01T15:08:29;19.80;99.90
17891;DHT22;9071;48.220;14.480;2022-09-01T15:13:31;19.80;99.90
17891;DHT22;9071;48.220;14.480;2022-09-01T15:18:34;19.80;99.90
17891;DHT22;9071;48.220;14.480;2022-09-01T15:23:36;19.90;99.90
17891;DHT22;9071;48.220;14.480;2022-09-01T15:28:38;19.90;99.90
17891;DHT22;9071;48.220;14.480;2022-09-01T15:33:42;19.70;99.90
17891;DHT22;9071;48.220;14.480;2022-09-01T15:38:44;19.60;99.90
17891;DHT22;9071;48.220;14.480;2022-09-01T15:43:47;19.60;99.90
17891;DHT22;9071;48.220;14.480;2022-09-01T15:48:50;19.50;99.90
17891;DHT22;9071;48.220;14.480;2022-09-01T15:53:54;19.50;99.90
17891;DHT22;9071;48.220;14.480;2022-09-01T15:58:58;19.60;99.90
17891;DHT22;9071;48.220;14.480;2022-09-01T16:04:04;19.40;99.90
17891;DHT22;9071;48.220;14.480;2022-09-01T16:09:07;19.50;99.90
17891;DHT22;9071;48.220;14.480;2022-09-01T16:14:09;19.40;99.90
17891;DHT22;9071;48.220;14.480;2022-09-01T16:19:23;19.30;99.90
17891;DHT22;9071;48.220;14.480;2022-09-01T16:24:27;19.30;99.90
17891;DHT22;9071;48.220;14.480;2022-09-01T16:29:37;19.10;99.90
17891;DHT22;9071;48.220;14.480;2022-09-01T16:34:43;19.00;99.90
17891;DHT22;9071;48.220;14.480;2022-09-01T16:39:49;18.90;99.90
17891;DHT22;9071;48.220;14.480;2022-09-01T16:45:03;18.80;99.90
17891;DHT22;9071;48.220;14.480;2022-09-01T16:50:14;18.70;99.90
17891;DHT22;9071;48.220;14.480;2022-09-01T16:55:24;18.60;99.90
17891;DHT22;9071;48.220;14.480;2022-09-01T17:00:34;18.50;99.90
17891;DHT22;9071;48.220;14.480;2022-09-01T17:05:46;18.40;99.90
17891;DHT22;9071;48.220;14.480;2022-09-01T17:10:53;18.30;99.90
17891;DHT22;9071;48.220;14.480;2022-09-01T17:16:02;18.20;99.90
17891;DHT22;9071;48.220;14.480;2022-09-01T17:21:12;18.10;99.90
17891;DHT22;9071;48.220;14.480;2022-09-01T17:26:22;18.00;99.90
17891;DHT22;9071;48.220;14.480;2022-09-01T17:31:36;18.00;99.90
17891;DHT22;9071;48.220;14.480;2022-09-01T17:36:51;17.90;99.90
17891;DHT22;9071;48.220;14.480;2022-09-01T17:41:58;17.70;99.90
17891;DHT22;9071;48.220;14.480;2022-09-01T17:47:04;17.70;99.90
17891;DHT22;9071;48.220;14.480;2022-09-01T17:52:17;17.60;99.90
17891;DHT22;9071;48.220;14.480;2022-09-01T17:57:27;17.50;99.90
17891;DHT22;9071;48.220;14.480;2022-09-01T18:02:46;17.40;99.90
17891;DHT22;9071;48.220;14.480;2022-09-01T18:08:07;17.30;99.90
17891;DHT22;9071;48.220;14.480;2022-09-01T18:13:17;17.20;99.90
17891;DHT22;9071;48.220;14.480;2022-09-01T18:18:32;17.10;99.90
17891;DHT22;9071;48.220;14.480;2022-09-01T18:23:39;17.10;99.90
17891;DHT22;9071;48.220;14.480;2022-09-01T18:28:42;17.10;99.90
17891;DHT22;9071;48.220;14.480;2022-09-01T18:33:54;17.10;99.90
17891;DHT22;9071;48.220;14.480;2022-09-01T18:39:05;17.10;99.90
17891;DHT22;9071;48.220;14.480;2022-09-01T18:44:24;17.00;99.90
17891;DHT22;9071;48.220;14.480;2022-09-01T18:49:38;17.00;99.90
17891;DHT22;9071;48.220;14.480;2022-09-01T18:54:54;16.90;99.90
17891;DHT22;9071;48.220;14.480;2022-09-01T19:00:07;16.90;99.90
17891;DHT22;9071;48.220;14.480;2022-09-01T19:05:29;16.90;99.90
17891;DHT22;9071;48.220;14.480;2022-09-01T19:10:39;16.80;99.90
17891;DHT22;9071;48.220;14.480;2022-09-01T19:15:50;16.90;99.90
17891;DHT22;9071;48.220;14.480;2022-09-01T19:20:58;16.80;99.90
17891;DHT22;9071;48.220;14.480;2022-09-01T19:26:07;16.80;99.90
17891;DHT22;9071;48.220;14.480;2022-09-01T19:31:18;16.70;99.90
17891;DHT22;9071;48.220;14.480;2022-09-01T19:36:26;16.70;99.90
17891;DHT22;9071;48.220;14.480;2022-09-01T19:41:33;16.70;99.90
17891;DHT22;9071;48.220;14.480;2022-09-01T19:46:42;16.70;99.90
17891;DHT22;9071;48.220;14.480;2022-09-01T19:51:52;16.70;99.90
17891;DHT22;9071;48.220;14.480;2022-09-01T19:57:03;16.70;99.90
17891;DHT22;9071;48.220;14.480;2022-09-01T20:02:14;16.70;99.90
17891;DHT22;9071;48.220;14.480;2022-09-01T20:07:27;16.60;99.90
17891;DHT22;9071;48.220;14.480;2022-09-01T20:12:37;16.60;99.90
17891;DHT22;9071;48.220;14.480;2022-09-01T20:17:45;16.60;99.90
17891;DHT22;9071;48.220;14.480;2022-09-01T20:22:54;16.50;99.90
17891;DHT22;9071;48.220;14.480;2022-09-01T20:28:06;16.40;99.90
17891;DHT22;9071;48.220;14.480;2022-09-01T20:33:17;16.40;99.90
17891;DHT22;9071;48.220;14.480;2022-09-01T20:38:23;16.50;99.90
17891;DHT22;9071;48.220;14.480;2022-09-01T20:43:47;16.40;99.90
17891;DHT22;9071;48.220;14.480;2022-09-01T20:48:51;16.40;99.90
17891;DHT22;9071;48.220;14.480;2022-09-01T20:54:03;16.40;99.90
17891;DHT22;9071;48.220;14.480;2022-09-01T20:59:13;16.40;99.90
17891;DHT22;9071;48.220;14.480;2022-09-01T21:04:32;16.40;99.90
17891;DHT22;9071;48.220;14.480;2022-09-01T21:09:45;16.30;99.90
17891;DHT22;9071;48.220;14.480;2022-09-01T21:14:57;16.30;99.90
17891;DHT22;9071;48.220;14.480;2022-09-01T21:20:08;16.40;99.90
17891;DHT22;9071;48.220;14.480;2022-09-01T21:25:11;16.40;99.90
17891;DHT22;9071;48.220;14.480;2022-09-01T21:30:15;16.40;99.90
17891;DHT22;9071;48.220;14.480;2022-09-01T21:35:19;16.40;99.90
17891;DHT22;9071;48.220;14.480;2022-09-01T21:40:23;16.40;99.90
17891;DHT22;9071;48.220;14.480;2022-09-01T21:45:27;16.30;99.90
17891;DHT22;9071;48.220;14.480;2022-09-01T21:50:30;16.20;99.90
17891;DHT22;9071;48.220;14.480;2022-09-01T21:55:33;16.10;99.90
17891;DHT22;9071;48.220;14.480;2022-09-01T22:00:38;16.00;99.90
17891;DHT22;9071;48.220;14.480;2022-09-01T22:05:41;16.00;99.90
17891;DHT22;9071;48.220;14.480;2022-09-01T22:10:47;16.10;99.90
17891;DHT22;9071;48.220;14.480;2022-09-01T22:15:53;16.10;99.90
17891;DHT22;9071;48.220;14.480;2022-09-01T22:21:01;16.10;99.90
17891;DHT22;9071;48.220;14.480;2022-09-01T22:26:04;16.00;99.90
17891;DHT22;9071;48.220;14.480;2022-09-01T22:31:12;15.90;99.90
17891;DHT22;9071;48.220;14.480;2022-09-01T22:36:20;15.90;99.90
17891;DHT22;9071;48.220;14.480;2022-09-01T22:41:24;15.90;99.90
17891;DHT22;9071;48.220;14.480;2022-09-01T22:46:28;15.90;99.90
17891;DHT22;9071;48.220;14.480;2022-09-01T22:51:31;15.90;99.90
17891;DHT22;9071;48.220;14.480;2022-09-01T22:56:35;15.90;99.90
17891;DHT22;9071;48.220;14.480;2022-09-01T23:01:41;16.00;99.90
17891;DHT22;9071;48.220;14.480;2022-09-01T23:06:46;15.90;99.90
17891;DHT22;9071;48.220;14.480;2022-09-01T23:11:49;15.90;99.90
17891;DHT22;9071;48.220;14.480;2022-09-01T23:16:52;15.80;99.90
17891;DHT22;9071;48.220;14.480;2022-09-01T23:21:54;15.80;99.90
17891;DHT22;9071;48.220;14.480;2022-09-01T23:26:56;15.70;99.90
17891;DHT22;9071;48.220;14.480;2022-09-01T23:32:00;15.70;99.90
17891;DHT22;9071;48.220;14.480;2022-09-01T23:37:02;15.60;99.90
17891;DHT22;9071;48.220;14.480;2022-09-01T23:42:04;15.50;99.90
17891;DHT22;9071;48.220;14.480;2022-09-01T23:47:08;15.30;99.90
17891;DHT22;9071;48.220;14.480;2022-09-01T23:52:10;15.20;99.90
17891;DHT22;9071;48.220;14.480;2022-09-01T23:57:12;15.10;99.90
